TimeEST,TemperatureF,Dew PointF,Humidity,Sea Level PressureIn,VisibilityMPH,Wind Direction,Wind SpeedMPH,Gust SpeedMPH,PrecipitationIn,Events,Conditions,WindDirDegrees,DateUTC
12:53 AM,39.9,35.1,83,30.20,10.0,Calm,Calm,-,N/A,,Clear,0,2012-11-23 05:53:00
1:53 AM,39.0,34.0,82,30.20,10.0,Calm,Calm,-,N/A,,Clear,0,2012-11-23 06:53:00
2:53 AM,37.9,34.0,86,30.19,10.0,Calm,Calm,-,N/A,,Clear,0,2012-11-23 07:53:00
3:53 AM,37.0,33.1,86,30.19,10.0,Calm,Calm,-,N/A,,Clear,0,2012-11-23 08:53:00
4:53 AM,37.0,32.0,82,30.19,10.0,Calm,Calm,-,N/A,,Clear,0,2012-11-23 09:53:00
5:53 AM,37.0,32.0,82,30.21,10.0,Calm,Calm,-,N/A,,Clear,0,2012-11-23 10:53:00
6:53 AM,36.0,32.0,86,30.22,10.0,Calm,Calm,-,N/A,,Clear,0,2012-11-23 11:53:00
7:53 AM,39.0,34.0,82,30.23,10.0,Calm,Calm,-,N/A,,Clear,0,2012-11-23 12:53:00
8:53 AM,51.1,42.1,71,30.24,10.0,Calm,Calm,-,N/A,,Clear,0,2012-11-23 13:53:00
9:53 AM,63.0,46.9,56,30.24,10.0,Calm,Calm,-,N/A,,Clear,0,2012-11-23 14:53:00
10:53 AM,71.1,45.0,39,30.23,10.0,WNW,6.9,-,N/A,,Clear,290,2012-11-23 15:53:00
11:53 AM,73.0,44.1,35,30.20,10.0,WNW,10.4,-,N/A,,Clear,290,2012-11-23 16:53:00
12:53 PM,73.9,43.0,33,30.17,10.0,NW,10.4,20.7,N/A,,Clear,310,2012-11-23 17:53:00
1:53 PM,73.9,43.0,33,30.14,10.0,NW,11.5,-,N/A,,Clear,310,2012-11-23 18:53:00
2:53 PM,75.0,42.1,31,30.11,10.0,WNW,12.7,-,N/A,,Clear,290,2012-11-23 19:53:00
3:53 PM,73.9,39.9,29,30.10,10.0,West,6.9,-,N/A,,Clear,280,2012-11-23 20:53:00
4:53 PM,73.0,39.9,30,30.09,10.0,WNW,5.8,-,N/A,,Clear,290,2012-11-23 21:53:00
5:53 PM,64.0,42.1,45,30.09,10.0,WSW,3.5,-,N/A,,Clear,250,2012-11-23 22:53:00
6:53 PM,57.0,44.1,62,30.10,10.0,Calm,Calm,-,N/A,,Clear,0,2012-11-23 23:53:00
7:53 PM,54.0,43.0,66,30.11,10.0,Calm,Calm,-,N/A,,Clear,0,2012-11-24 00:53:00
8:53 PM,54.0,45.0,72,30.12,10.0,West,4.6,-,N/A,,Clear,260,2012-11-24 01:53:00
9:53 PM,54.0,45.0,72,30.11,10.0,West,3.5,-,N/A,,Clear,280,2012-11-24 02:53:00
10:53 PM,53.1,46.0,77,30.11,10.0,Calm,Calm,-,N/A,,Clear,0,2012-11-24 03:53:00
11:53 PM,52.0,48.0,86,30.09,10.0,West,4.6,-,N/A,,Clear,270,2012-11-24 04:53:00